Time;durP1;ratioP1;P1;durP2;ratioP2;P2;SDS_P1;SDS_P2;PMS_P1;PMS_P2;Temp;Humidity;BMP_temperature;BMP_pressure;BME280_temperature;BME280_humidity;BME280_pressure;Samples;Min_cycle;Max_cycle;Signal;HPM_P1;HPM_P2
2022/08/13 00:00:10;;;;;;;7.25;3.45;;;22.00;98.90;;;;;;4953391;28;20030;-74
2022/08/13 00:02:42;;;;;;;7.53;3.57;;;21.80;99.90;;;;;;4952619;28;20439;-74
2022/08/13 00:05:09;;;;;;;8.48;3.50;;;21.70;99.90;;;;;;4952181;28;20553;-75
2022/08/13 00:07:36;;;;;;;8.55;3.97;;;21.70;99.90;;;;;;4952251;28;20430;-77
2022/08/13 00:10:04;;;;;;;4.55;3.40;;;21.60;99.90;;;;;;4952509;28;20125;-75
2022/08/13 00:15:30;;;;;;;6.28;3.45;;;21.30;99.90;;;;;;4952598;28;20030;-72
2022/08/13 00:18:02;;;;;;;6.03;3.70;;;21.30;99.90;;;;;;4952810;28;20351;-74
2022/08/13 00:20:32;;;;;;;6.82;3.65;;;21.30;99.90;;;;;;4952498;28;20050;-74
2022/08/13 00:22:58;;;;;;;6.93;3.47;;;21.20;99.90;;;;;;4952441;28;20513;-74
2022/08/13 00:25:25;;;;;;;6.72;4.18;;;21.20;99.90;;;;;;4953171;28;20544;-74
2022/08/13 00:27:56;;;;;;;6.05;3.70;;;21.10;99.90;;;;;;4952392;28;20376;-76
2022/08/13 00:30:31;;;;;;;10.73;3.75;;;21.00;99.90;;;;;;4952412;28;20039;-73
2022/08/13 00:32:59;;;;;;;7.82;3.35;;;21.00;99.90;;;;;;4952759;28;20437;-75
2022/08/13 00:35:26;;;;;;;7.70;3.58;;;21.00;99.90;;;;;;4952096;28;20066;-71
2022/08/13 00:37:55;;;;;;;6.65;4.03;;;20.90;99.90;;;;;;4955121;28;20093;-75
2022/08/13 00:40:22;;;;;;;7.95;4.18;;;21.00;99.90;;;;;;4958574;28;20099;-75
2022/08/13 00:42:50;;;;;;;8.65;4.47;;;20.90;99.90;;;;;;4958518;28;20073;-75
2022/08/13 00:45:16;;;;;;;7.65;3.90;;;20.80;99.90;;;;;;4957494;28;20044;-75
2022/08/13 00:50:27;;;;;;;7.07;4.35;;;20.80;99.90;;;;;;4956890;28;20035;-76
2022/08/13 00:52:54;;;;;;;7.50;4.40;;;20.80;99.90;;;;;;4956731;28;20027;-76
2022/08/13 00:55:21;;;;;;;12.05;4.75;;;20.80;99.90;;;;;;4959535;28;20034;-75
2022/08/13 00:57:49;;;;;;;7.97;4.45;;;20.70;99.90;;;;;;4956211;28;20027;-73
2022/08/13 01:00:18;;;;;;;8.35;4.57;;;20.70;99.90;;;;;;4957666;28;20035;-73
2022/08/13 01:02:52;;;;;;;11.00;5.28;;;20.70;99.90;;;;;;4962625;28;20038;-76
2022/08/13 01:05:19;;;;;;;7.00;4.53;;;20.70;99.90;;;;;;4964740;28;20039;-76
2022/08/13 01:07:46;;;;;;;8.07;4.70;;;20.70;99.90;;;;;;4964195;28;20081;-75
2022/08/13 01:10:14;;;;;;;9.10;4.40;;;20.60;99.90;;;;;;4959330;28;20054;-74
2022/08/13 01:12:40;;;;;;;6.78;4.53;;;20.60;99.90;;;;;;4960832;28;20058;-72
2022/08/13 01:15:12;;;;;;;8.93;4.85;;;20.50;99.90;;;;;;4956106;28;20559;-69
2022/08/13 01:17:40;;;;;;;6.63;4.65;;;20.60;99.90;;;;;;4955761;28;20113;-72
2022/08/13 01:20:09;;;;;;;12.63;5.28;;;20.50;99.90;;;;;;4960924;28;20030;-69
2022/08/13 01:22:37;;;;;;;10.52;5.45;;;20.50;99.90;;;;;;4955551;28;20027;-73
2022/08/13 01:25:05;;;;;;;7.93;4.85;;;20.50;99.90;;;;;;4955777;28;20027;-74
2022/08/13 01:27:32;;;;;;;10.65;4.95;;;20.50;99.90;;;;;;4955470;28;20042;-73
2022/08/13 01:30:01;;;;;;;7.10;4.47;;;20.40;99.90;;;;;;4959147;28;20031;-74
2022/08/13 01:32:27;;;;;;;8.63;4.20;;;20.40;99.90;;;;;;4958596;28;20043;-73
2022/08/13 01:34:53;;;;;;;6.88;4.07;;;20.40;99.90;;;;;;4954417;28;20106;-75
2022/08/13 01:37:20;;;;;;;6.32;3.90;;;20.40;99.90;;;;;;4956087;28;20162;-72
2022/08/13 01:39:46;;;;;;;8.93;4.63;;;20.30;99.90;;;;;;4955201;28;20106;-72
2022/08/13 01:42:22;;;;;;;6.78;4.13;;;20.30;99.90;;;;;;4955417;28;20426;-71
2022/08/13 01:44:49;;;;;;;8.27;4.65;;;20.30;99.90;;;;;;4954461;29;20055;-77
2022/08/13 01:52:50;;;;;;;7.32;4.65;;;20.30;99.90;;;;;;4954790;28;20110;-78
2022/08/13 01:55:17;;;;;;;7.90;4.50;;;20.40;99.90;;;;;;4956416;28;20058;-75
2022/08/13 01:57:44;;;;;;;6.07;4.13;;;20.30;99.90;;;;;;4955865;28;20031;-77
2022/08/13 02:00:18;;;;;;;8.93;4.10;;;20.30;99.90;;;;;;4956410;28;20031;-78
2022/08/13 02:02:44;;;;;;;8.77;3.92;;;20.30;99.90;;;;;;4956300;28;20023;-76
2022/08/13 02:05:11;;;;;;;9.32;4.45;;;20.20;99.90;;;;;;4955445;28;20031;-76
2022/08/13 02:07:43;;;;;;;8.07;4.20;;;20.30;99.90;;;;;;4955023;28;20414;-77
2022/08/13 02:10:09;;;;;;;7.78;4.45;;;20.20;99.90;;;;;;4954371;28;20064;-78
2022/08/13 02:12:36;;;;;;;7.70;4.45;;;20.20;99.90;;;;;;4950122;28;20035;-76
2022/08/13 02:15:05;;;;;;;8.05;4.95;;;20.20;99.90;;;;;;4954486;28;20066;-77
2022/08/13 02:17:41;;;;;;;8.25;4.32;;;20.20;99.90;;;;;;4954863;28;20098;-74
2022/08/13 02:20:11;;;;;;;6.43;4.10;;;20.20;99.90;;;;;;4951605;28;20389;-73
2022/08/13 02:22:37;;;;;;;8.90;4.57;;;20.20;99.90;;;;;;4954087;28;20102;-78
2022/08/13 02:25:06;;;;;;;6.18;4.00;;;20.10;99.90;;;;;;4954390;28;20409;-76
2022/08/13 02:27:32;;;;;;;5.63;3.97;;;20.10;99.90;;;;;;4954183;28;20424;-78
2022/08/13 02:29:59;;;;;;;6.03;3.75;;;20.10;99.90;;;;;;4954045;28;20082;-73
2022/08/13 02:32:25;;;;;;;7.72;4.60;;;20.10;99.90;;;;;;4954220;28;20035;-76
2022/08/13 02:34:53;;;;;;;9.88;4.72;;;20.10;99.90;;;;;;4953813;28;20102;-76
2022/08/13 02:37:21;;;;;;;6.38;4.28;;;20.10;99.90;;;;;;4954066;29;20389;-78
2022/08/13 02:39:56;;;;;;;6.50;4.03;;;20.10;99.90;;;;;;4953899;28;20393;-77
2022/08/13 02:42:22;;;;;;;6.70;4.15;;;20.10;99.90;;;;;;4953863;28;20031;-74
2022/08/13 02:44:50;;;;;;;7.30;3.65;;;20.10;99.90;;;;;;4953889;28;20490;-73
2022/08/13 02:47:19;;;;;;;7.95;4.05;;;20.10;99.90;;;;;;4954131;28;20063;-74
2022/08/13 02:49:45;;;;;;;7.13;4.35;;;20.00;99.90;;;;;;4953648;28;20122;-72
2022/08/13 02:52:11;;;;;;;6.72;3.67;;;20.10;99.90;;;;;;4954039;28;20477;-73
2022/08/13 02:54:43;;;;;;;7.90;4.47;;;20.10;99.90;;;;;;4953803;28;20537;-75
2022/08/13 02:57:12;;;;;;;6.53;4.20;;;20.10;99.90;;;;;;4953686;28;20035;-75
2022/08/13 02:59:39;;;;;;;6.95;4.20;;;20.00;99.90;;;;;;4953296;28;20504;-77
2022/08/13 03:02:06;;;;;;;7.95;4.43;;;20.00;99.90;;;;;;4953575;28;20031;-75
2022/08/13 03:04:32;;;;;;;7.75;4.47;;;20.00;99.90;;;;;;4953634;28;20019;-73
2022/08/13 03:06:59;;;;;;;10.63;4.47;;;20.00;99.90;;;;;;4953034;28;20019;-75
2022/08/13 03:09:25;;;;;;;7.70;4.70;;;20.00;99.90;;;;;;4953129;28;20031;-75
2022/08/13 03:11:51;;;;;;;7.10;4.13;;;19.90;99.90;;;;;;4953150;28;20028;-75
2022/08/13 03:14:19;;;;;;;8.13;4.53;;;19.90;99.90;;;;;;4953215;28;20030;-76
2022/08/13 03:16:45;;;;;;;5.75;3.97;;;20.00;99.90;;;;;;4953708;28;20031;-76
2022/08/13 03:19:11;;;;;;;6.53;3.67;;;19.80;99.90;;;;;;4953246;28;20394;-75
2022/08/13 03:21:41;;;;;;;6.05;3.83;;;19.90;99.90;;;;;;4952906;28;20024;-74
2022/08/13 03:24:15;;;;;;;6.70;3.85;;;19.90;99.90;;;;;;4953017;28;20496;-75
2022/08/13 03:26:41;;;;;;;7.47;3.90;;;19.80;99.90;;;;;;4949195;29;20031;-75
2022/08/13 03:29:08;;;;;;;6.57;4.38;;;19.80;99.90;;;;;;4952160;28;20085;-73
2022/08/13 03:31:36;;;;;;;8.82;4.80;;;19.80;99.90;;;;;;4955742;28;20027;-75
2022/08/13 03:34:03;;;;;;;9.70;4.80;;;19.80;99.90;;;;;;4952559;28;20027;-75
2022/08/13 03:36:30;;;;;;;6.95;4.97;;;19.80;99.90;;;;;;4952824;28;20035;-75
2022/08/13 03:38:57;;;;;;;10.32;4.68;;;19.80;99.90;;;;;;4983687;28;20418;-75
2022/08/13 03:41:23;;;;;;;6.78;4.45;;;19.80;99.90;;;;;;4950667;28;20030;-75
2022/08/13 03:43:49;;;;;;;8.60;4.90;;;19.80;99.90;;;;;;4952128;28;20037;-73
2022/08/13 03:46:18;;;;;;;10.25;4.70;;;19.80;99.90;;;;;;4952760;28;20035;-75
2022/08/13 03:48:45;;;;;;;6.97;4.50;;;19.70;99.90;;;;;;4952524;28;20491;-74
2022/08/13 03:51:11;;;;;;;8.13;4.40;;;19.60;99.90;;;;;;4952248;28;20058;-75
2022/08/13 03:53:38;;;;;;;6.65;4.38;;;19.60;99.90;;;;;;4952564;28;20469;-74
2022/08/13 03:56:06;;;;;;;7.45;4.57;;;19.70;99.90;;;;;;4948845;29;20031;-74
2022/08/13 03:58:33;;;;;;;6.07;4.30;;;19.60;99.90;;;;;;4952276;28;20027;-75
2022/08/13 04:01:01;;;;;;;8.07;4.90;;;19.60;99.90;;;;;;4952659;28;20386;-75
2022/08/13 04:03:36;;;;;;;6.53;4.03;;;19.60;99.90;;;;;;4952155;28;20011;-73
2022/08/13 04:06:06;;;;;;;6.60;4.03;;;19.60;99.90;;;;;;4949709;28;20031;-73
2022/08/13 04:08:34;;;;;;;7.68;4.38;;;19.50;99.90;;;;;;4980013;28;20031;-74
2022/08/13 04:11:11;;;;;;;6.25;4.22;;;19.50;99.90;;;;;;4952409;28;20389;-74
2022/08/13 04:13:39;;;;;;;8.88;4.82;;;19.50;99.90;;;;;;4951402;28;20058;-75
2022/08/13 04:16:18;;;;;;;7.47;4.68;;;19.50;99.90;;;;;;4952392;28;20039;-75
2022/08/13 04:18:45;;;;;;;8.75;5.18;;;19.50;99.90;;;;;;4952312;28;20160;-75
2022/08/13 04:21:14;;;;;;;7.65;4.68;;;19.40;99.90;;;;;;4955452;28;20520;-77
2022/08/13 04:23:43;;;;;;;10.23;6.00;;;19.50;99.90;;;;;;4952303;28;20027;-76
2022/08/13 04:26:11;;;;;;;9.70;5.78;;;19.50;99.90;;;;;;4952275;28;20019;-76
2022/08/13 04:28:38;;;;;;;9.27;5.20;;;19.60;99.90;;;;;;4952373;28;20470;-77
2022/08/13 04:31:05;;;;;;;7.25;4.95;;;19.60;99.90;;;;;;4952069;28;20039;-77
2022/08/13 04:33:31;;;;;;;6.93;4.53;;;19.70;99.90;;;;;;4952554;28;20098;-76
2022/08/13 04:35:57;;;;;;;7.20;5.07;;;19.70;99.90;;;;;;4952200;28;20023;-74
2022/08/13 04:38:23;;;;;;;7.00;5.13;;;19.70;99.90;;;;;;4952436;28;20121;-74
2022/08/13 04:40:51;;;;;;;10.07;5.25;;;19.60;99.90;;;;;;4952385;28;20106;-77
2022/08/13 04:43:17;;;;;;;7.13;5.13;;;19.60;99.90;;;;;;4951935;28;20023;-76
2022/08/13 04:45:43;;;;;;;8.32;5.38;;;19.60;99.90;;;;;;4952381;28;20043;-77
2022/08/13 04:48:13;;;;;;;8.77;5.07;;;19.60;99.90;;;;;;4952379;28;20374;-77
2022/08/13 04:50:41;;;;;;;9.48;5.88;;;19.60;99.90;;;;;;4952059;28;20118;-77
2022/08/13 04:53:19;;;;;;;8.82;5.68;;;19.60;99.90;;;;;;4952228;28;20019;-76
2022/08/13 04:55:45;;;;;;;7.60;4.88;;;19.70;99.90;;;;;;4983547;28;20070;-76
2022/08/13 04:58:11;;;;;;;10.85;6.10;;;19.60;99.90;;;;;;4952296;28;20047;-75
2022/08/13 05:00:37;;;;;;;6.30;4.90;;;19.60;99.90;;;;;;4952141;28;20031;-76
2022/08/13 05:03:08;;;;;;;13.23;5.55;;;19.50;99.90;;;;;;4952415;28;20015;-76
2022/08/13 05:05:36;;;;;;;10.10;5.18;;;19.60;99.90;;;;;;4951969;28;20043;-77
2022/08/13 05:08:03;;;;;;;8.52;5.13;;;19.60;99.90;;;;;;4952112;28;20050;-76
2022/08/13 05:10:31;;;;;;;7.78;4.82;;;19.70;99.90;;;;;;4948051;28;20047;-76
2022/08/13 05:13:01;;;;;;;10.38;5.65;;;19.60;99.90;;;;;;4951822;28;20042;-76
2022/08/13 05:15:28;;;;;;;8.25;5.10;;;19.60;99.90;;;;;;4951942;28;20424;-76
2022/08/13 05:17:54;;;;;;;9.20;4.95;;;19.60;99.90;;;;;;4951197;28;20095;-76
2022/08/13 05:20:20;;;;;;;8.25;5.43;;;19.60;99.90;;;;;;4951336;28;20162;-77
2022/08/13 05:22:46;;;;;;;9.30;6.28;;;19.60;99.90;;;;;;4982601;28;20445;-74
2022/08/13 05:25:14;;;;;;;9.93;6.00;;;19.60;99.90;;;;;;4954167;28;20035;-77
2022/08/13 05:27:41;;;;;;;11.32;6.80;;;19.60;99.90;;;;;;4955367;28;20015;-76
2022/08/13 05:30:08;;;;;;;12.30;6.28;;;19.60;99.90;;;;;;4954479;28;20031;-76
2022/08/13 05:32:38;;;;;;;13.20;7.13;;;19.70;99.90;;;;;;4957322;28;20019;-76
2022/08/13 05:35:08;;;;;;;11.13;6.60;;;19.80;99.90;;;;;;4955487;28;20031;-77
2022/08/13 05:37:34;;;;;;;12.20;6.32;;;19.70;99.90;;;;;;4955444;28;20030;-77
2022/08/13 05:39:59;;;;;;;13.55;7.43;;;19.60;99.90;;;;;;4955264;28;20031;-74
2022/08/13 05:42:25;;;;;;;13.32;7.05;;;19.60;99.90;;;;;;4954938;28;20034;-72
2022/08/13 05:44:54;;;;;;;15.05;6.47;;;19.60;99.90;;;;;;4954496;28;20102;-76
2022/08/13 05:47:19;;;;;;;12.50;7.53;;;19.60;99.90;;;;;;4955103;29;20167;-73
2022/08/13 05:49:45;;;;;;;13.52;7.30;;;19.50;99.90;;;;;;4955234;28;20102;-73
2022/08/13 05:52:11;;;;;;;10.80;6.38;;;19.60;99.90;;;;;;4954778;28;20031;-69
2022/08/13 05:54:37;;;;;;;11.18;6.22;;;19.40;99.90;;;;;;4954561;28;20023;-76
2022/08/13 05:57:03;;;;;;;9.10;5.68;;;19.40;99.90;;;;;;4954976;28;20359;-71
2022/08/13 06:05:00;;;;;;;10.13;6.15;;;19.10;99.90;;;;;;4954436;28;20115;-72
2022/08/13 06:07:26;;;;;;;9.52;6.47;;;19.10;99.90;;;;;;4954433;28;20043;-75
2022/08/13 06:09:52;;;;;;;12.98;7.50;;;19.00;99.90;;;;;;4954244;28;20506;-71
2022/08/13 06:12:18;;;;;;;16.85;7.60;;;18.90;99.90;;;;;;4954253;28;20103;-75
2022/08/13 06:14:45;;;;;;;12.40;7.53;;;18.90;99.90;;;;;;4954199;28;20110;-74
2022/08/13 06:17:12;;;;;;;13.90;7.30;;;18.90;99.90;;;;;;4986550;28;20061;-69
2022/08/13 06:19:43;;;;;;;13.20;8.00;;;18.90;99.90;;;;;;4955763;28;20023;-70
2022/08/13 06:22:11;;;;;;;14.63;8.15;;;18.80;99.90;;;;;;4955772;28;20040;-76
2022/08/13 06:24:37;;;;;;;12.70;8.43;;;19.00;99.90;;;;;;4955602;28;20023;-75
2022/08/13 06:27:04;;;;;;;12.93;7.85;;;19.00;99.90;;;;;;4955584;28;20039;-64
2022/08/13 06:29:40;;;;;;;11.60;6.05;;;19.10;99.90;;;;;;4955284;28;20023;-76
2022/08/13 06:32:08;;;;;;;11.77;6.55;;;19.10;99.90;;;;;;4959883;28;20039;-64
2022/08/13 06:34:35;;;;;;;11.32;5.55;;;19.10;99.90;;;;;;4955225;28;20027;-67
2022/08/13 06:37:02;;;;;;;10.02;6.50;;;19.10;99.90;;;;;;4955060;28;20151;-74
2022/08/13 06:39:33;;;;;;;9.93;5.68;;;19.20;99.90;;;;;;4955327;28;20030;-65
2022/08/13 06:42:04;;;;;;;8.82;5.97;;;19.30;99.90;;;;;;4955361;28;20031;-69
2022/08/13 06:44:32;;;;;;;8.98;5.95;;;19.30;99.90;;;;;;4954942;28;20047;-76
2022/08/13 06:47:03;;;;;;;10.57;5.60;;;19.30;99.90;;;;;;4955397;28;20055;-64
2022/08/13 06:49:31;;;;;;;9.73;5.50;;;19.20;99.90;;;;;;4955632;28;20175;-74
2022/08/13 06:51:57;;;;;;;11.18;5.97;;;19.20;99.90;;;;;;4953205;28;20114;-73
2022/08/13 06:54:24;;;;;;;12.95;5.82;;;19.20;99.90;;;;;;4954542;28;20170;-75
2022/08/13 06:56:52;;;;;;;10.75;6.30;;;19.10;99.90;;;;;;4954295;28;20024;-74
2022/08/13 06:59:21;;;;;;;8.77;5.72;;;19.00;99.90;;;;;;4954791;28;20030;-74
2022/08/13 07:01:47;;;;;;;10.38;5.93;;;18.90;99.90;;;;;;4954588;28;20058;-74
2022/08/13 07:04:19;;;;;;;13.23;6.20;;;18.90;99.90;;;;;;4953804;28;20035;-75
2022/08/13 07:06:47;;;;;;;11.48;5.63;;;19.00;99.90;;;;;;4953968;28;20031;-71
2022/08/13 07:09:14;;;;;;;11.77;5.80;;;18.80;99.90;;;;;;4953914;28;20483;-74
2022/08/13 07:11:44;;;;;;;10.77;6.68;;;18.90;99.90;;;;;;4953998;28;20035;-75
2022/08/13 07:14:11;;;;;;;8.77;5.15;;;19.00;99.90;;;;;;4954074;28;20023;-75
2022/08/13 07:16:38;;;;;;;10.98;6.25;;;19.00;99.90;;;;;;4954438;28;20027;-76
2022/08/13 07:19:04;;;;;;;10.98;6.70;;;19.00;99.90;;;;;;4953933;28;20029;-72
2022/08/13 07:21:32;;;;;;;9.80;5.95;;;19.10;99.90;;;;;;4953837;28;20020;-75
2022/08/13 07:24:03;;;;;;;12.40;7.25;;;19.00;99.90;;;;;;4953360;28;20118;-72
2022/08/13 07:26:33;;;;;;;12.55;7.15;;;18.90;99.90;;;;;;4953832;28;20086;-75
2022/08/13 07:29:01;;;;;;;12.90;7.20;;;18.90;99.90;;;;;;4953696;28;20046;-74
2022/08/13 07:31:33;;;;;;;12.18;7.43;;;19.00;99.90;;;;;;4953637;28;20442;-73
2022/08/13 07:34:04;;;;;;;10.32;6.47;;;18.90;99.90;;;;;;4953595;28;20042;-75
2022/08/13 07:36:33;;;;;;;13.35;8.00;;;18.80;99.90;;;;;;4953129;28;20030;-74
2022/08/13 07:39:07;;;;;;;12.85;7.95;;;18.90;99.90;;;;;;4952950;28;20086;-73
2022/08/13 07:41:40;;;;;;;13.18;7.63;;;19.00;99.90;;;;;;4952274;28;20031;-75
2022/08/13 07:44:12;;;;;;;11.05;7.57;;;19.00;99.90;;;;;;4954973;28;20042;-73
2022/08/13 07:46:42;;;;;;;10.48;6.80;;;19.00;99.90;;;;;;4953775;28;20031;-72
2022/08/13 07:49:12;;;;;;;10.77;6.70;;;19.00;99.90;;;;;;4951052;29;20026;-74
2022/08/13 07:51:39;;;;;;;13.30;7.18;;;19.00;99.90;;;;;;4952168;28;20039;-71
2022/08/13 07:54:07;;;;;;;12.63;7.65;;;19.10;99.90;;;;;;4952590;29;20596;-75
2022/08/13 07:56:34;;;;;;;25.30;7.82;;;19.20;99.90;;;;;;4953324;28;20027;-77
2022/08/13 07:59:04;;;;;;;13.43;8.68;;;19.30;99.90;;;;;;4953443;28;20035;-77
2022/08/13 08:01:33;;;;;;;14.65;7.20;;;19.20;99.90;;;;;;4952600;29;20359;-65
2022/08/13 08:04:04;;;;;;;11.38;7.53;;;19.40;99.90;;;;;;4948657;28;20031;-74
2022/08/13 08:06:32;;;;;;;18.27;10.55;;;19.40;99.90;;;;;;4950054;28;20066;-76
2022/08/13 08:08:58;;;;;;;18.30;11.77;;;19.40;99.90;;;;;;4951660;28;20026;-75
2022/08/13 08:14:10;;;;;;;16.20;9.68;;;19.40;99.90;;;;;;4951876;28;20110;-73
2022/08/13 08:16:37;;;;;;;12.35;7.90;;;19.30;99.90;;;;;;4952333;28;20033;-70
2022/08/13 08:19:04;;;;;;;12.07;7.40;;;19.40;99.90;;;;;;4952919;28;20031;-76
2022/08/13 08:21:32;;;;;;;11.90;6.28;;;19.50;99.90;;;;;;4952892;28;20019;-72
2022/08/13 08:24:01;;;;;;;11.13;7.05;;;19.50;99.90;;;;;;4953479;28;20023;-68
2022/08/13 08:26:32;;;;;;;10.13;6.18;;;19.60;99.90;;;;;;4953706;28;20488;-73
2022/08/13 08:29:00;;;;;;;9.63;6.25;;;19.70;99.90;;;;;;4952742;28;20030;-74
2022/08/13 08:31:27;;;;;;;9.88;5.80;;;19.80;99.90;;;;;;4952749;28;20091;-75
2022/08/13 08:33:57;;;;;;;9.35;6.13;;;19.80;99.90;;;;;;4952087;28;20023;-68
2022/08/13 08:36:24;;;;;;;11.32;6.40;;;20.00;99.90;;;;;;4952739;28;20030;-75
2022/08/13 08:44:24;;;;;;;12.23;6.57;;;20.30;99.90;;;;;;4952089;28;20047;-75
2022/08/13 08:47:11;;;;;;;8.70;5.93;;;20.50;99.90;;;;;;4952376;28;20042;-75
2022/08/13 08:49:39;;;;;;;9.10;6.38;;;20.80;99.90;;;;;;4951836;28;20035;-73
2022/08/13 08:52:05;;;;;;;7.38;5.13;;;21.00;99.90;;;;;;4951888;28;20031;-75
2022/08/13 08:54:32;;;;;;;9.20;5.40;;;21.40;99.90;;;;;;4952246;28;20492;-75
2022/08/13 08:56:58;;;;;;;13.07;6.18;;;21.30;99.90;;;;;;4952739;28;20034;-67
2022/08/13 08:59:32;;;;;;;10.35;5.15;;;21.30;99.90;;;;;;4955573;28;20073;-76
2022/08/13 09:01:59;;;;;;;8.65;5.72;;;21.60;99.90;;;;;;4956616;28;20031;-75
2022/08/13 09:04:28;;;;;;;9.73;6.28;;;21.50;99.90;;;;;;4956170;28;20106;-75
2022/08/13 09:06:58;;;;;;;8.75;5.60;;;21.70;99.90;;;;;;4956409;28;20035;-75
2022/08/13 09:09:25;;;;;;;11.13;5.82;;;21.60;99.90;;;;;;4956062;28;20030;-75
2022/08/13 09:11:55;;;;;;;8.73;5.68;;;21.90;99.90;;;;;;4956761;28;20039;-76
2022/08/13 09:14:25;;;;;;;10.38;6.03;;;21.80;99.90;;;;;;4956363;28;20055;-76
2022/08/13 09:16:55;;;;;;;7.63;4.88;;;21.90;99.90;;;;;;4955170;28;20031;-69
2022/08/13 09:19:23;;;;;;;9.70;6.30;;;22.00;99.90;;;;;;4954092;28;20030;-73
2022/08/13 09:21:49;;;;;;;8.82;6.20;;;21.80;99.90;;;;;;4953887;28;20026;-76
2022/08/13 09:24:16;;;;;;;10.43;6.15;;;21.80;99.90;;;;;;4955826;28;20046;-74
2022/08/13 09:26:47;;;;;;;9.20;5.65;;;21.90;99.90;;;;;;4956011;28;20030;-77
2022/08/13 09:29:18;;;;;;;8.18;5.53;;;22.10;99.90;;;;;;4955833;28;20031;-77
2022/08/13 09:31:50;;;;;;;7.97;5.63;;;22.40;99.90;;;;;;4956071;28;20063;-76
2022/08/13 09:34:17;;;;;;;7.82;4.80;;;22.40;99.90;;;;;;4955733;28;20027;-76
2022/08/13 09:36:45;;;;;;;8.80;5.80;;;22.40;99.90;;;;;;4955738;28;20070;-76
2022/08/13 09:39:36;;;;;;;9.35;5.97;;;22.30;99.90;;;;;;4955937;28;20466;-77
2022/08/13 09:42:08;;;;;;;8.20;5.28;;;22.10;99.90;;;;;;4955411;28;20028;-76
2022/08/13 09:44:38;;;;;;;7.10;4.80;;;22.20;99.90;;;;;;4956097;28;20050;-77
2022/08/13 09:47:04;;;;;;;7.35;4.57;;;22.50;99.90;;;;;;4955988;28;20089;-78
2022/08/13 09:49:31;;;;;;;9.85;5.32;;;22.30;99.90;;;;;;4955624;28;20027;-77
2022/08/13 09:51:56;;;;;;;7.68;5.38;;;22.50;99.90;;;;;;4955705;28;20496;-76
2022/08/13 09:54:22;;;;;;;8.02;5.25;;;22.50;99.90;;;;;;4955609;28;20102;-77
2022/08/13 09:56:48;;;;;;;10.23;5.60;;;22.40;99.90;;;;;;4954622;28;20045;-75
2022/08/13 09:59:15;;;;;;;7.10;4.90;;;22.50;99.90;;;;;;4955013;28;20470;-74
2022/08/13 10:01:41;;;;;;;6.40;4.70;;;22.70;99.90;;;;;;4955906;28;20027;-77
2022/08/13 10:04:07;;;;;;;7.05;4.72;;;22.90;99.90;;;;;;4954668;28;20031;-73
2022/08/13 10:06:33;;;;;;;8.63;5.25;;;23.20;99.90;;;;;;4955680;28;20378;-77
2022/08/13 10:09:00;;;;;;;6.32;4.70;;;23.20;99.90;;;;;;4955146;28;20103;-78
2022/08/13 10:11:27;;;;;;;8.27;5.20;;;23.40;99.90;;;;;;4954736;28;20192;-66
2022/08/13 10:13:54;;;;;;;8.02;5.15;;;23.50;99.90;;;;;;4954999;28;20653;-66
2022/08/13 10:16:21;;;;;;;7.15;4.85;;;23.60;99.90;;;;;;4955629;28;20031;-75
2022/08/13 10:18:47;;;;;;;6.38;4.20;;;23.60;99.90;;;;;;4953975;28;20038;-76
2022/08/13 10:21:14;;;;;;;4.43;3.70;;;23.60;99.90;;;;;;4955046;28;20065;-66
2022/08/13 10:23:40;;;;;;;5.97;4.05;;;23.60;99.90;;;;;;4955188;28;20027;-74
2022/08/13 10:26:07;;;;;;;6.25;4.22;;;23.50;99.90;;;;;;4954017;28;20117;-76
2022/08/13 10:28:35;;;;;;;6.13;4.55;;;23.50;99.90;;;;;;4955239;28;20028;-76
2022/08/13 10:31:05;;;;;;;6.82;4.63;;;23.30;99.90;;;;;;4954996;28;20039;-76
2022/08/13 10:33:32;;;;;;;10.15;4.95;;;23.60;99.90;;;;;;4955175;28;20035;-76
2022/08/13 10:35:58;;;;;;;5.13;4.10;;;23.80;99.90;;;;;;4954756;28;20102;-75
2022/08/13 10:38:26;;;;;;;6.85;4.97;;;23.80;99.90;;;;;;4954574;28;20174;-72
2022/08/13 10:41:07;;;;;;;7.95;4.32;;;23.20;99.90;;;;;;4954532;28;20030;-75
2022/08/13 10:43:38;;;;;;;5.37;4.27;;;23.00;99.90;;;;;;4946165;28;20050;-74
2022/08/13 10:46:06;;;;;;;5.87;4.03;;;23.10;99.90;;;;;;4954642;29;20054;-76
2022/08/13 10:48:32;;;;;;;6.20;4.43;;;23.30;99.90;;;;;;4954860;28;20413;-76
2022/08/13 10:50:58;;;;;;;4.60;3.45;;;23.50;99.90;;;;;;4954626;28;20075;-76
2022/08/13 10:56:11;;;;;;;5.95;3.97;;;23.00;99.90;;;;;;4950896;29;20031;-76
2022/08/13 10:58:42;;;;;;;7.00;4.60;;;23.30;99.90;;;;;;4953934;28;20023;-75
2022/08/13 11:01:10;;;;;;;5.82;4.20;;;23.50;99.90;;;;;;4955054;28;20031;-74
2022/08/13 11:03:36;;;;;;;4.88;3.22;;;23.90;99.90;;;;;;4952522;28;20055;-76
2022/08/13 11:06:07;;;;;;;5.78;4.10;;;23.70;99.90;;;;;;4953155;28;20031;-74
2022/08/13 11:08:37;;;;;;;6.22;4.18;;;23.80;99.90;;;;;;4953898;28;20023;-73
2022/08/13 11:11:08;;;;;;;6.30;4.00;;;23.70;99.90;;;;;;4954565;28;20433;-66
2022/08/13 11:13:39;;;;;;;8.13;4.78;;;23.70;99.90;;;;;;4954274;28;20084;-67
2022/08/13 11:16:34;;;;;;;7.57;4.25;;;23.80;99.90;;;;;;4954159;28;20049;-75
2022/08/13 11:18:54;;;;;;;7.95;3.75;;;24.10;99.90;;;;;;4953260;28;20533;-73
2022/08/13 11:21:20;;;;;;;6.53;3.80;;;24.10;99.90;;;;;;4954084;28;20101;-75
2022/08/13 11:23:46;;;;;;;7.05;4.25;;;24.20;99.90;;;;;;4954336;28;20103;-69
2022/08/13 11:26:12;;;;;;;6.50;3.88;;;24.20;99.90;;;;;;4957428;28;20083;-71
2022/08/13 11:28:38;;;;;;;5.80;3.72;;;24.20;99.90;;;;;;4954847;28;20498;-73
2022/08/13 11:31:04;;;;;;;4.85;3.47;;;24.30;99.90;;;;;;4956414;28;20133;-69
2022/08/13 11:33:30;;;;;;;6.22;3.95;;;24.30;99.90;;;;;;4957744;28;20147;-70
2022/08/13 11:35:56;;;;;;;6.75;4.22;;;24.30;99.90;;;;;;4961909;28;20023;-76
2022/08/13 11:38:23;;;;;;;7.30;4.15;;;24.30;99.90;;;;;;4953993;28;20030;-76
2022/08/13 11:40:50;;;;;;;5.90;3.80;;;24.20;99.90;;;;;;4954531;28;20155;-73
2022/08/13 11:43:16;;;;;;;5.97;4.30;;;24.30;99.90;;;;;;4953786;28;20098;-76
2022/08/13 11:45:42;;;;;;;5.97;4.15;;;24.40;99.90;;;;;;4954084;28;20031;-71
2022/08/13 11:48:08;;;;;;;5.40;3.60;;;24.80;99.90;;;;;;4953099;28;20035;-74
2022/08/13 11:50:34;;;;;;;6.93;4.38;;;24.70;99.30;;;;;;4953873;28;20039;-76
2022/08/13 11:53:01;;;;;;;6.68;3.53;;;25.10;99.10;;;;;;4953501;28;20588;-76
2022/08/13 11:55:27;;;;;;;4.55;3.33;;;25.30;99.90;;;;;;4954029;28;20049;-77
2022/08/13 11:58:05;;;;;;;5.63;3.13;;;24.90;97.20;;;;;;4954072;28;20462;-70
2022/08/13 12:00:32;;;;;;;7.60;3.83;;;24.80;97.30;;;;;;4953331;28;20434;-75
2022/08/13 12:02:58;;;;;;;6.38;4.10;;;24.60;99.00;;;;;;4953707;28;20038;-76
2022/08/13 12:05:24;;;;;;;6.70;3.88;;;24.60;98.40;;;;;;4954161;28;20027;-77
2022/08/13 12:07:50;;;;;;;6.10;4.00;;;24.60;99.50;;;;;;4953482;28;20031;-74
2022/08/13 12:10:19;;;;;;;5.38;3.50;;;24.80;99.90;;;;;;4953068;28;20057;-76
2022/08/13 12:12:45;;;;;;;4.78;3.60;;;24.80;99.00;;;;;;4953327;28;20036;-76
2022/08/13 12:15:13;;;;;;;12.80;3.95;;;24.90;98.50;;;;;;4953548;28;20454;-76
2022/08/13 12:17:47;;;;;;;5.30;3.13;;;24.80;98.80;;;;;;4953632;28;20027;-75
2022/08/13 12:20:16;;;;;;;5.43;3.15;;;24.70;95.90;;;;;;4953563;28;20122;-76
2022/08/13 12:22:42;;;;;;;4.90;3.60;;;24.70;97.60;;;;;;4953232;28;20051;-76
2022/08/13 12:25:09;;;;;;;7.63;4.00;;;24.80;98.10;;;;;;4953355;28;20050;-78
2022/08/13 12:27:37;;;;;;;8.18;3.47;;;24.80;98.10;;;;;;4953522;28;20027;-76
2022/08/13 12:30:04;;;;;;;7.70;3.85;;;24.50;98.90;;;;;;4952793;28;20019;-77
2022/08/13 12:32:30;;;;;;;5.30;3.50;;;24.70;99.00;;;;;;4953142;28;20509;-78
2022/08/13 12:34:56;;;;;;;6.13;3.75;;;24.90;97.70;;;;;;4956934;28;20059;-76
2022/08/13 12:37:23;;;;;;;5.35;3.40;;;24.70;99.10;;;;;;4957055;28;20175;-77
2022/08/13 12:39:53;;;;;;;4.53;3.35;;;24.60;99.00;;;;;;4957297;28;20019;-78
2022/08/13 12:42:19;;;;;;;5.88;3.30;;;24.60;98.00;;;;;;4956755;28;20114;-78
2022/08/13 12:44:45;;;;;;;4.30;2.92;;;24.00;99.50;;;;;;4956641;28;20048;-78
2022/08/13 12:47:11;;;;;;;3.30;3.00;;;24.60;98.90;;;;;;4957108;28;20046;-77
2022/08/13 12:49:36;;;;;;;6.50;2.90;;;24.90;95.00;;;;;;4957149;28;20027;-76
2022/08/13 12:52:03;;;;;;;4.30;3.00;;;25.20;95.30;;;;;;4957149;28;20474;-78
2022/08/13 12:54:29;;;;;;;4.80;3.30;;;25.20;96.30;;;;;;4956955;28;20232;-75
2022/08/13 12:56:54;;;;;;;6.22;3.10;;;25.00;96.60;;;;;;4956857;28;20032;-78
2022/08/13 12:59:20;;;;;;;5.30;3.03;;;24.80;96.10;;;;;;4956567;28;20034;-78
2022/08/13 13:01:53;;;;;;;4.15;3.35;;;24.80;94.60;;;;;;4957141;28;20477;-77
2022/08/13 13:04:22;;;;;;;5.22;3.45;;;24.70;94.60;;;;;;4956569;28;20034;-77
2022/08/13 13:06:50;;;;;;;5.32;3.22;;;24.80;95.60;;;;;;4956200;29;20062;-76
2022/08/13 13:09:16;;;;;;;5.20;3.67;;;24.60;96.50;;;;;;4956036;28;20023;-75
2022/08/13 13:11:42;;;;;;;4.93;3.15;;;24.50;98.40;;;;;;4956370;28;20129;-77
2022/08/13 13:14:08;;;;;;;5.10;3.42;;;24.50;98.50;;;;;;4955004;28;20024;-75